createdAt,value
2022-11-07T00:01:15.648Z,17.80
2022-11-07T00:03:42.729Z,17.90
2022-11-07T00:06:10.057Z,17.90
2022-11-07T00:08:37.328Z,17.90
2022-11-07T00:11:05.572Z,17.90
2022-11-07T00:13:33.670Z,17.90
2022-11-07T00:16:02.152Z,17.90
2022-11-07T00:18:29.363Z,17.90
2022-11-07T00:20:56.409Z,17.90
2022-11-07T00:23:23.473Z,17.90
2022-11-07T00:25:50.504Z,17.90
2022-11-07T00:28:17.568Z,17.90
2022-11-07T00:30:44.696Z,17.90
2022-11-07T00:33:11.883Z,17.90
2022-11-07T00:35:42.818Z,17.90
2022-11-07T00:38:09.840Z,17.80
2022-11-07T00:40:36.976Z,17.90
2022-11-07T00:43:04.009Z,17.90
2022-11-07T00:45:31.042Z,17.80
2022-11-07T00:47:58.067Z,17.80
2022-11-07T00:50:26.470Z,17.80
2022-11-07T00:52:53.497Z,17.90
2022-11-07T00:55:20.517Z,17.80
2022-11-07T00:57:47.549Z,17.80
2022-11-07T01:00:14.846Z,17.80
2022-11-07T01:02:41.983Z,17.90
2022-11-07T01:05:13.024Z,17.80
2022-11-07T01:07:40.170Z,17.90
2022-11-07T01:10:07.614Z,17.80
2022-11-07T01:12:35.193Z,17.80
2022-11-07T01:15:03.909Z,17.80
2022-11-07T01:17:31.019Z,17.80
2022-11-07T01:19:58.074Z,17.80
2022-11-07T01:22:25.134Z,17.80
2022-11-07T01:24:52.315Z,17.80
2022-11-07T01:27:19.438Z,17.80
2022-11-07T01:29:46.626Z,17.80
2022-11-07T01:32:13.674Z,17.80
2022-11-07T01:34:40.799Z,17.80
2022-11-07T01:37:07.846Z,17.80
2022-11-07T01:39:34.959Z,17.80
2022-11-07T01:42:02.034Z,17.80
2022-11-07T01:44:29.023Z,17.80
2022-11-07T01:46:59.111Z,17.80
2022-11-07T01:49:34.863Z,17.80
2022-11-07T01:52:10.987Z,17.70
2022-11-07T01:55:00.666Z,17.70
2022-11-07T01:57:40.195Z,17.80
2022-11-07T02:00:11.103Z,17.70
2022-11-07T02:02:38.884Z,17.80
2022-11-07T02:05:08.675Z,17.80
2022-11-07T02:07:37.481Z,17.80
2022-11-07T02:10:04.945Z,17.80
2022-11-07T02:12:32.058Z,17.80
2022-11-07T02:14:59.185Z,17.80
2022-11-07T02:17:28.721Z,17.80
2022-11-07T02:19:56.699Z,17.80
2022-11-07T02:22:32.297Z,17.80
2022-11-07T02:25:03.052Z,17.80
2022-11-07T02:27:32.329Z,17.80
2022-11-07T02:30:09.585Z,17.80
2022-11-07T02:32:36.632Z,17.80
2022-11-07T02:35:40.265Z,17.70
2022-11-07T02:38:26.246Z,17.70
2022-11-07T02:41:05.047Z,17.70
2022-11-07T02:43:34.911Z,17.70
2022-11-07T02:46:07.200Z,17.70
2022-11-07T02:48:43.173Z,17.70
2022-11-07T02:51:10.269Z,17.70
2022-11-07T02:53:38.568Z,17.70
2022-11-07T02:56:06.332Z,17.70
2022-11-07T02:58:33.820Z,17.70
2022-11-07T03:01:06.960Z,17.80
2022-11-07T03:03:39.608Z,17.80
2022-11-07T03:06:08.744Z,17.80
2022-11-07T03:08:35.800Z,17.80
2022-11-07T03:11:03.993Z,17.80
2022-11-07T03:13:31.250Z,17.80
2022-11-07T03:15:58.541Z,17.80
2022-11-07T03:18:26.690Z,17.80
2022-11-07T03:20:53.728Z,17.80
2022-11-07T03:23:20.865Z,17.80
2022-11-07T03:25:47.918Z,17.90
2022-11-07T03:28:14.973Z,17.90
2022-11-07T03:30:42.021Z,17.90
2022-11-07T03:33:09.286Z,17.80
2022-11-07T03:35:36.333Z,17.90
2022-11-07T03:38:03.405Z,17.90
2022-11-07T03:40:30.449Z,17.90
2022-11-07T03:42:59.958Z,17.90
2022-11-07T03:45:27.042Z,17.90
2022-11-07T03:47:54.136Z,17.90
2022-11-07T03:50:22.106Z,17.80
2022-11-07T03:52:49.518Z,17.90
2022-11-07T03:55:18.068Z,17.80
2022-11-07T03:57:45.658Z,17.80
2022-11-07T04:00:13.983Z,17.80
2022-11-07T04:02:44.854Z,17.80
2022-11-07T04:05:12.437Z,17.80
2022-11-07T04:07:39.493Z,17.80
2022-11-07T04:10:06.817Z,17.80
2022-11-07T04:12:52.411Z,17.90
2022-11-07T04:15:38.046Z,17.80
2022-11-07T04:18:05.147Z,17.80
2022-11-07T04:20:32.260Z,17.80
2022-11-07T04:22:59.305Z,17.80
2022-11-07T04:25:45.332Z,17.80
2022-11-07T04:28:12.410Z,17.80
2022-11-07T04:30:39.432Z,17.80
2022-11-07T04:33:06.475Z,17.80
2022-11-07T04:35:33.861Z,17.80
2022-11-07T04:38:04.272Z,17.70
2022-11-07T04:40:31.339Z,17.70
2022-11-07T04:42:59.242Z,17.70
2022-11-07T04:45:26.352Z,17.70
2022-11-07T04:47:53.552Z,17.70
2022-11-07T04:50:23.688Z,17.70
2022-11-07T04:52:50.739Z,17.70
2022-11-07T04:55:23.255Z,17.80
2022-11-07T04:57:50.816Z,17.70
2022-11-07T05:00:19.639Z,17.80
2022-11-07T05:02:47.735Z,17.70
2022-11-07T05:05:15.388Z,17.80
2022-11-07T05:07:43.151Z,17.70
2022-11-07T05:10:25.272Z,17.80
2022-11-07T05:12:53.100Z,17.80
2022-11-07T05:15:20.596Z,17.80
2022-11-07T05:17:49.537Z,17.80
2022-11-07T05:20:29.992Z,17.80
2022-11-07T05:23:12.456Z,17.80
2022-11-07T05:25:50.339Z,17.80
2022-11-07T05:28:33.951Z,17.80
2022-11-07T05:31:06.834Z,17.80
2022-11-07T05:33:34.553Z,17.70
2022-11-07T05:36:20.684Z,17.80
2022-11-07T05:38:52.901Z,17.80
2022-11-07T05:41:23.866Z,17.80
2022-11-07T05:43:50.901Z,17.80
2022-11-07T05:46:17.981Z,17.80
2022-11-07T05:48:45.008Z,17.90
2022-11-07T05:51:12.067Z,17.90
2022-11-07T05:53:39.201Z,17.90
2022-11-07T05:56:06.660Z,17.90
2022-11-07T05:58:33.898Z,17.80
2022-11-07T06:01:03.160Z,17.80
2022-11-07T06:03:30.996Z,17.90
2022-11-07T06:06:00.338Z,17.80
2022-11-07T06:08:27.594Z,17.80
2022-11-07T06:10:54.717Z,17.80
2022-11-07T06:13:21.805Z,17.80
2022-11-07T06:15:49.903Z,17.70
2022-11-07T06:18:19.678Z,17.70
2022-11-07T06:20:47.165Z,17.80
2022-11-07T06:23:14.809Z,17.70
2022-11-07T06:25:42.566Z,17.70
2022-11-07T06:28:12.420Z,17.70
2022-11-07T06:30:41.103Z,17.80
2022-11-07T06:33:16.597Z,17.80
2022-11-07T06:35:44.510Z,17.80
2022-11-07T06:38:13.642Z,17.80
2022-11-07T06:40:41.374Z,17.80
2022-11-07T06:43:11.017Z,17.70
2022-11-07T06:45:44.578Z,17.70
2022-11-07T06:48:12.342Z,17.80
2022-11-07T06:50:39.679Z,17.80
2022-11-07T06:53:09.217Z,17.80
2022-11-07T06:55:37.223Z,17.80
2022-11-07T06:58:06.074Z,17.80
2022-11-07T07:00:36.379Z,17.80
2022-11-07T07:03:04.136Z,17.80
2022-11-07T07:05:33.217Z,17.80
2022-11-07T07:08:00.345Z,17.80
2022-11-07T07:10:27.444Z,17.80
2022-11-07T07:12:55.087Z,17.80
2022-11-07T07:15:22.584Z,17.80
2022-11-07T07:17:49.664Z,17.80
2022-11-07T07:20:21.876Z,17.80
2022-11-07T07:22:53.862Z,17.80
2022-11-07T07:25:25.475Z,17.80
2022-11-07T07:27:52.563Z,17.80
2022-11-07T07:30:19.637Z,17.80
2022-11-07T07:32:48.736Z,17.80
2022-11-07T07:35:15.808Z,17.80
2022-11-07T07:37:42.960Z,17.80
2022-11-07T07:40:10.658Z,17.80
2022-11-07T07:42:42.528Z,17.80
2022-11-07T07:45:12.974Z,17.80
2022-11-07T07:47:40.628Z,17.70
2022-11-07T07:50:10.188Z,17.70
2022-11-07T07:52:37.345Z,17.80
2022-11-07T07:55:05.318Z,17.70
2022-11-07T07:57:32.361Z,17.80
2022-11-07T08:00:02.176Z,17.80
2022-11-07T08:02:29.305Z,17.80
2022-11-07T08:04:56.379Z,17.80
2022-11-07T08:07:24.347Z,17.80
2022-11-07T08:09:53.613Z,17.80
2022-11-07T08:12:20.654Z,17.90
2022-11-07T08:14:47.936Z,17.80
2022-11-07T08:17:14.964Z,17.90
2022-11-07T08:19:42.021Z,17.80
2022-11-07T08:22:10.303Z,17.90
2022-11-07T08:24:37.346Z,17.80
2022-11-07T08:27:04.381Z,17.80
2022-11-07T08:29:31.414Z,17.90
2022-11-07T08:31:58.477Z,17.80
2022-11-07T08:34:25.522Z,17.80
2022-11-07T08:36:52.553Z,17.80
2022-11-07T08:39:19.583Z,17.80
2022-11-07T08:41:46.702Z,17.80
2022-11-07T08:44:13.758Z,17.80
2022-11-07T08:46:40.850Z,17.80
2022-11-07T08:49:07.941Z,17.80
2022-11-07T08:51:35.258Z,17.80
2022-11-07T08:54:02.290Z,17.90
2022-11-07T08:56:33.060Z,17.80
2022-11-07T08:59:00.680Z,17.90
2022-11-07T09:01:27.840Z,17.90
2022-11-07T09:03:58.427Z,17.90
2022-11-07T09:06:25.935Z,17.90
2022-11-07T09:08:52.986Z,17.90
2022-11-07T09:11:21.793Z,17.90
2022-11-07T09:13:50.080Z,17.80
2022-11-07T09:16:17.628Z,17.60
2022-11-07T09:18:46.648Z,17.30
2022-11-07T09:21:19.117Z,17.30
2022-11-07T09:23:49.475Z,17.40
2022-11-07T09:26:16.535Z,17.40
2022-11-07T09:28:47.036Z,17.50
2022-11-07T09:31:18.084Z,17.50
2022-11-07T09:33:45.112Z,17.60
2022-11-07T09:36:13.031Z,17.60
2022-11-07T09:38:40.171Z,17.60
2022-11-07T09:41:07.919Z,17.70
2022-11-07T09:43:50.868Z,17.60
2022-11-07T09:46:17.860Z,17.70
2022-11-07T09:48:54.296Z,17.60
2022-11-07T09:51:32.659Z,17.50
2022-11-07T09:54:05.927Z,17.40
2022-11-07T09:56:34.188Z,17.30
2022-11-07T09:59:12.790Z,17.30
2022-11-07T10:01:42.903Z,17.20
2022-11-07T10:04:24.577Z,17.20
2022-11-07T10:07:19.752Z,17.20
2022-11-07T10:09:59.509Z,17.20
2022-11-07T10:12:46.264Z,17.20
2022-11-07T10:15:19.155Z,17.10
2022-11-07T10:18:09.739Z,17.10
2022-11-07T10:21:31.157Z,17.10
2022-11-07T10:24:09.310Z,17.00
2022-11-07T10:26:37.220Z,16.90
2022-11-07T10:29:13.060Z,16.90
2022-11-07T10:31:47.718Z,16.80
2022-11-07T10:34:36.508Z,16.60
2022-11-07T10:37:04.542Z,16.60
2022-11-07T10:39:32.249Z,16.60
2022-11-07T10:42:01.580Z,16.50
2022-11-07T10:44:29.396Z,16.60
2022-11-07T10:46:56.585Z,16.60
2022-11-07T10:49:28.869Z,16.60
2022-11-07T10:52:10.457Z,16.70
2022-11-07T10:54:37.538Z,16.70
2022-11-07T10:57:16.537Z,16.70
2022-11-07T10:59:58.777Z,16.80
2022-11-07T11:02:45.617Z,16.90
2022-11-07T11:05:40.497Z,17.00
2022-11-07T11:08:22.361Z,17.00
2022-11-07T11:10:50.173Z,17.10
2022-11-07T11:13:34.056Z,17.10
2022-11-07T11:16:27.038Z,17.10
2022-11-07T11:19:02.642Z,17.10
2022-11-07T11:21:44.067Z,17.20
2022-11-07T11:24:31.307Z,17.20
2022-11-07T11:27:19.270Z,17.20
2022-11-07T11:30:05.238Z,17.20
2022-11-07T11:32:45.014Z,17.20
2022-11-07T11:35:30.432Z,17.20
2022-11-07T11:38:31.326Z,17.20
2022-11-07T11:41:14.200Z,17.20
2022-11-07T11:43:50.428Z,17.30
2022-11-07T11:46:25.963Z,17.30
2022-11-07T11:49:34.454Z,17.20
2022-11-07T11:52:08.273Z,17.20
2022-11-07T11:54:36.821Z,17.20
2022-11-07T11:57:26.380Z,17.20
2022-11-07T12:00:10.546Z,17.10
2022-11-07T12:03:05.354Z,17.20
2022-11-07T12:05:53.854Z,17.20
2022-11-07T12:08:30.787Z,17.20
2022-11-07T12:11:19.647Z,17.20
2022-11-07T12:13:58.160Z,17.20
2022-11-07T12:16:46.701Z,17.10
2022-11-07T12:19:37.328Z,17.20
2022-11-07T12:22:34.531Z,17.20
2022-11-07T12:25:05.671Z,17.20
2022-11-07T12:27:41.532Z,17.20
2022-11-07T12:30:31.672Z,17.20
2022-11-07T12:32:58.701Z,17.20
2022-11-07T12:35:52.709Z,17.20
2022-11-07T12:38:34.018Z,17.10
2022-11-07T12:41:31.043Z,17.20
2022-11-07T12:44:18.503Z,17.20
2022-11-07T12:46:53.074Z,17.20
2022-11-07T12:49:29.476Z,17.20
2022-11-07T12:52:37.424Z,17.20
2022-11-07T12:55:30.072Z,17.20
2022-11-07T12:57:58.332Z,17.20
2022-11-07T13:00:30.019Z,17.20
2022-11-07T13:03:13.327Z,17.20
2022-11-07T13:06:01.897Z,17.20
2022-11-07T13:08:34.644Z,17.20
2022-11-07T13:11:16.698Z,17.20
2022-11-07T13:13:55.705Z,17.20
2022-11-07T13:16:31.465Z,17.20
2022-11-07T13:19:24.471Z,17.20
2022-11-07T13:22:24.247Z,17.20
2022-11-07T13:25:13.462Z,17.20
2022-11-07T13:27:53.110Z,17.20
2022-11-07T13:30:22.142Z,17.20
2022-11-07T13:32:51.231Z,17.20
2022-11-07T13:35:54.689Z,17.20
2022-11-07T13:38:24.758Z,17.20
2022-11-07T13:41:04.997Z,17.20
2022-11-07T13:43:43.270Z,17.20
2022-11-07T13:46:35.318Z,17.20
2022-11-07T13:49:15.758Z,17.20
2022-11-07T13:51:45.745Z,17.20
2022-11-07T13:54:27.460Z,17.20
2022-11-07T13:56:56.736Z,17.20
2022-11-07T13:59:59.615Z,17.20
2022-11-07T14:02:36.872Z,17.20
2022-11-07T14:05:17.136Z,17.20
2022-11-07T14:07:51.228Z,17.20
2022-11-07T14:10:26.762Z,17.20
2022-11-07T14:13:02.207Z,17.20
2022-11-07T14:15:30.502Z,17.20
2022-11-07T14:17:57.642Z,17.20
2022-11-07T14:20:24.731Z,17.20
2022-11-07T14:22:58.318Z,17.20
2022-11-07T14:25:31.752Z,17.20
2022-11-07T14:27:59.917Z,17.20
2022-11-07T14:30:29.871Z,17.20
2022-11-07T14:32:59.752Z,17.20
2022-11-07T14:35:34.633Z,17.30
2022-11-07T14:38:27.263Z,17.40
2022-11-07T14:41:00.551Z,17.50
2022-11-07T14:43:29.031Z,17.60
2022-11-07T14:46:17.100Z,17.60
2022-11-07T14:48:46.124Z,17.70
2022-11-07T14:51:15.865Z,17.70
2022-11-07T14:53:58.483Z,17.70
2022-11-07T14:56:34.552Z,17.80
2022-11-07T14:59:02.071Z,17.80
2022-11-07T15:01:34.232Z,17.90
2022-11-07T15:04:14.691Z,17.90
2022-11-07T15:06:43.861Z,17.90
2022-11-07T15:09:12.296Z,17.90
2022-11-07T15:11:41.859Z,17.90
2022-11-07T15:14:35.465Z,17.90
2022-11-07T15:17:05.149Z,18.00
2022-11-07T15:19:35.249Z,17.90
2022-11-07T15:22:04.560Z,17.90
2022-11-07T15:24:47.111Z,18.00
2022-11-07T15:27:14.118Z,18.00
2022-11-07T15:29:50.628Z,18.00
2022-11-07T15:32:20.729Z,17.90
2022-11-07T15:37:41.683Z,18.00
2022-11-07T15:40:18.526Z,17.90
2022-11-07T15:42:45.559Z,17.90
2022-11-07T15:45:12.806Z,17.90
2022-11-07T15:47:42.844Z,18.00
2022-11-07T15:50:16.433Z,18.00
2022-11-07T15:52:44.449Z,18.00
2022-11-07T15:55:17.456Z,18.00
2022-11-07T15:57:48.930Z,18.00
2022-11-07T16:00:24.888Z,18.00
2022-11-07T16:02:52.706Z,17.90
2022-11-07T16:05:19.929Z,18.00
2022-11-07T16:07:49.824Z,18.00
2022-11-07T16:10:25.045Z,18.00
2022-11-07T16:12:53.334Z,18.00
2022-11-07T16:15:24.070Z,18.00
2022-11-07T16:17:51.131Z,18.00
2022-11-07T16:20:21.181Z,18.00
2022-11-07T16:22:49.649Z,18.00
2022-11-07T16:25:23.108Z,18.00
2022-11-07T16:27:53.138Z,18.00
2022-11-07T16:30:23.223Z,18.00
2022-11-07T16:32:50.286Z,17.90
2022-11-07T16:35:17.463Z,17.80
2022-11-07T16:37:44.528Z,17.70
2022-11-07T16:40:18.111Z,17.60
2022-11-07T16:42:45.692Z,17.50
2022-11-07T16:45:19.148Z,17.40
2022-11-07T16:47:48.548Z,17.30
2022-11-07T16:50:17.075Z,17.00
2022-11-07T16:52:44.235Z,17.00
2022-11-07T16:55:18.979Z,17.10
2022-11-07T16:57:46.611Z,17.20
2022-11-07T17:00:23.005Z,17.30
2022-11-07T17:02:50.479Z,17.50
2022-11-07T17:05:20.537Z,17.50
2022-11-07T17:07:49.434Z,17.60
2022-11-07T17:10:18.977Z,17.70
2022-11-07T17:12:46.039Z,17.80
2022-11-07T17:15:16.180Z,17.80
2022-11-07T17:17:43.308Z,17.90
2022-11-07T17:20:48.641Z,17.90
2022-11-07T17:23:08.293Z,17.90
2022-11-07T17:25:37.150Z,17.90
2022-11-07T17:28:04.979Z,18.00
2022-11-07T17:30:33.431Z,18.00
2022-11-07T17:33:01.450Z,18.00
2022-11-07T17:35:32.737Z,18.00
2022-11-07T17:38:00.179Z,18.00
2022-11-07T17:40:30.095Z,18.00
2022-11-07T17:42:58.070Z,18.00
2022-11-07T17:45:26.279Z,18.10
2022-11-07T17:47:53.356Z,18.00
2022-11-07T17:50:22.283Z,18.00
2022-11-07T17:52:52.075Z,18.00
2022-11-07T17:55:20.321Z,18.00
2022-11-07T17:57:47.626Z,18.00
2022-11-07T18:00:17.592Z,18.00
2022-11-07T18:02:49.665Z,18.00
2022-11-07T18:05:18.792Z,18.00
2022-11-07T18:07:46.484Z,18.00
2022-11-07T18:10:15.324Z,18.00
2022-11-07T18:12:42.921Z,18.00
2022-11-07T18:15:12.547Z,18.00
2022-11-07T18:17:40.921Z,17.90
2022-11-07T18:20:09.648Z,17.90
2022-11-07T18:22:39.276Z,17.90
2022-11-07T18:25:07.372Z,17.90
2022-11-07T18:27:35.170Z,17.90
2022-11-07T18:30:03.108Z,17.90
2022-11-07T18:32:35.806Z,17.90
2022-11-07T18:35:05.821Z,17.90
2022-11-07T18:37:33.020Z,17.90
2022-11-07T18:40:00.137Z,17.90
2022-11-07T18:42:30.906Z,17.90
2022-11-07T18:45:00.283Z,17.90
2022-11-07T18:47:28.533Z,17.80
2022-11-07T18:49:57.492Z,17.90
2022-11-07T18:52:24.914Z,17.90
2022-11-07T18:54:54.092Z,17.90
2022-11-07T18:57:21.185Z,17.90
2022-11-07T18:59:48.294Z,17.90
2022-11-07T19:02:16.942Z,17.90
2022-11-07T19:04:46.235Z,17.90
2022-11-07T19:07:13.313Z,17.90
2022-11-07T19:09:40.605Z,17.90
2022-11-07T19:12:07.879Z,17.90
2022-11-07T19:14:35.097Z,17.90
2022-11-07T19:17:02.223Z,17.90
2022-11-07T19:19:29.614Z,17.90
2022-11-07T19:21:56.947Z,17.80
2022-11-07T19:24:24.599Z,17.80
2022-11-07T19:26:53.919Z,17.90
2022-11-07T19:29:21.013Z,17.90
2022-11-07T19:31:49.088Z,17.90
2022-11-07T19:34:17.915Z,17.90
2022-11-07T19:36:45.392Z,17.90
2022-11-07T19:39:12.452Z,17.90
2022-11-07T19:41:39.500Z,17.90
2022-11-07T19:44:07.055Z,17.90
2022-11-07T19:46:34.164Z,17.90
2022-11-07T19:49:01.261Z,17.90
2022-11-07T19:51:28.351Z,17.80
2022-11-07T19:53:59.713Z,17.80
2022-11-07T19:56:32.927Z,17.80
2022-11-07T19:59:01.340Z,17.70
2022-11-07T20:01:31.859Z,17.70
2022-11-07T20:03:59.935Z,17.70
2022-11-07T20:06:31.792Z,17.80
2022-11-07T20:09:00.271Z,17.70
2022-11-07T20:11:27.944Z,17.70
2022-11-07T20:14:02.770Z,17.70
2022-11-07T20:16:31.842Z,17.80
2022-11-07T20:19:00.408Z,17.80
2022-11-07T20:21:28.868Z,17.80
2022-11-07T20:23:58.005Z,17.80
2022-11-07T20:26:27.287Z,17.80
2022-11-07T20:28:54.425Z,17.80
2022-11-07T20:31:25.260Z,17.80
2022-11-07T20:33:53.998Z,17.80
2022-11-07T20:36:21.320Z,17.80
2022-11-07T20:38:48.672Z,17.80
2022-11-07T20:41:16.232Z,17.80
2022-11-07T20:43:43.678Z,17.80
2022-11-07T20:46:14.992Z,17.80
2022-11-07T20:48:42.804Z,17.80
2022-11-07T20:51:15.831Z,17.80
2022-11-07T20:53:49.525Z,17.80
2022-11-07T20:56:19.076Z,17.80
2022-11-07T20:58:46.693Z,17.80
2022-11-07T21:01:22.640Z,17.80
2022-11-07T21:03:53.154Z,17.80
2022-11-07T21:06:20.253Z,17.80
2022-11-07T21:08:50.011Z,17.80
2022-11-07T21:11:17.475Z,17.80
2022-11-07T21:13:51.211Z,17.80
2022-11-07T21:16:21.692Z,17.80
2022-11-07T21:18:50.259Z,17.80
2022-11-07T21:21:23.791Z,17.80
2022-11-07T21:23:51.942Z,17.80
2022-11-07T21:26:22.447Z,17.80
2022-11-07T21:28:49.710Z,17.80
2022-11-07T21:31:24.134Z,17.90
2022-11-07T21:33:51.698Z,17.80
2022-11-07T21:36:24.527Z,17.90
2022-11-07T21:38:54.333Z,17.90
2022-11-07T21:41:21.434Z,17.90
2022-11-07T21:43:48.875Z,17.90
2022-11-07T21:46:17.144Z,17.80
2022-11-07T21:48:45.767Z,17.90
2022-11-07T21:51:19.231Z,17.80
2022-11-07T21:53:48.052Z,17.90
2022-11-07T21:56:26.545Z,17.80
2022-11-07T21:58:56.730Z,17.80
2022-11-07T22:01:24.247Z,17.90
2022-11-07T22:04:06.675Z,17.80
2022-11-07T22:06:36.122Z,18.00
2022-11-07T22:09:05.845Z,17.80
2022-11-07T22:11:33.075Z,17.90
2022-11-07T22:14:00.114Z,17.80
2022-11-07T22:16:29.511Z,17.90
2022-11-07T22:18:57.934Z,17.80
2022-11-07T22:21:24.981Z,17.90
2022-11-07T22:23:52.134Z,17.90
2022-11-07T22:26:21.603Z,17.80
2022-11-07T22:28:49.409Z,17.90
2022-11-07T22:31:24.879Z,17.90
2022-11-07T22:33:57.424Z,17.80
2022-11-07T22:36:26.787Z,17.80
2022-11-07T22:38:55.275Z,17.80
2022-11-07T22:41:28.896Z,17.80
2022-11-07T22:43:57.133Z,17.80
2022-11-07T22:46:27.087Z,17.80
2022-11-07T22:48:57.156Z,17.90
2022-11-07T22:51:30.528Z,17.80
2022-11-07T22:54:02.863Z,17.90
2022-11-07T22:56:30.791Z,17.80
2022-11-07T22:58:58.156Z,17.80
2022-11-07T23:01:39.868Z,17.80
2022-11-07T23:04:07.947Z,17.80
2022-11-07T23:06:35.048Z,17.80
2022-11-07T23:09:02.632Z,17.80
2022-11-07T23:11:51.311Z,17.80
2022-11-07T23:14:21.090Z,17.80
2022-11-07T23:16:57.286Z,17.80
2022-11-07T23:19:26.238Z,17.80
2022-11-07T23:21:54.861Z,17.80
2022-11-07T23:24:22.452Z,17.80
2022-11-07T23:26:49.894Z,17.80
2022-11-07T23:29:19.806Z,17.70
2022-11-07T23:31:48.550Z,17.80
2022-11-07T23:34:16.425Z,17.80
2022-11-07T23:36:44.757Z,17.80
2022-11-07T23:39:20.288Z,17.80
2022-11-07T23:41:47.849Z,17.80
2022-11-07T23:44:17.901Z,17.80
2022-11-07T23:47:03.450Z,17.80
2022-11-07T23:49:51.369Z,17.80
2022-11-07T23:52:18.820Z,17.80
2022-11-07T23:55:04.921Z,17.80
2022-11-07T23:57:56.742Z,17.80
